createdAt,value
2018-07-13T00:02:14.824Z,88.00
2018-07-13T00:04:43.211Z,88.10
2018-07-13T00:07:11.548Z,88.40
2018-07-13T00:09:39.949Z,87.80
2018-07-13T00:12:08.511Z,87.30
2018-07-13T00:14:36.916Z,87.00
2018-07-13T00:17:06.117Z,87.10
2018-07-13T00:19:34.489Z,87.20
2018-07-13T00:22:02.833Z,87.80
2018-07-13T00:24:31.195Z,87.70
2018-07-13T00:26:59.542Z,87.40
2018-07-13T00:29:27.917Z,87.30
2018-07-13T00:31:56.265Z,87.70
2018-07-13T00:34:24.633Z,87.80
2018-07-13T00:36:53.237Z,88.00
2018-07-13T00:39:21.583Z,88.00
2018-07-13T00:41:49.973Z,87.80
2018-07-13T00:44:18.353Z,87.80
2018-07-13T00:46:46.750Z,87.80
2018-07-13T00:49:15.093Z,87.80
2018-07-13T00:51:43.461Z,87.80
2018-07-13T00:54:11.817Z,87.80
2018-07-13T00:56:40.192Z,87.90
2018-07-13T00:59:08.539Z,88.10
2018-07-13T01:01:36.905Z,88.10
2018-07-13T01:04:05.277Z,87.90
2018-07-13T01:06:33.649Z,88.60
2018-07-13T01:09:01.985Z,89.10
2018-07-13T01:11:30.361Z,89.40
2018-07-13T01:13:58.712Z,89.60
2018-07-13T01:16:27.085Z,89.70
2018-07-13T01:18:55.440Z,89.60
2018-07-13T01:21:23.812Z,89.50
2018-07-13T01:23:52.181Z,89.70
2018-07-13T01:26:20.552Z,89.50
2018-07-13T01:28:49.053Z,89.40
2018-07-13T01:31:17.429Z,89.20
2018-07-13T01:33:45.777Z,89.30
2018-07-13T01:36:14.156Z,89.00
2018-07-13T01:38:42.725Z,89.00
2018-07-13T01:41:11.132Z,88.90
2018-07-13T01:43:39.542Z,88.80
2018-07-13T01:46:07.933Z,88.70
2018-07-13T01:48:36.272Z,88.80
2018-07-13T01:51:04.673Z,88.80
2018-07-13T01:53:33.049Z,89.10
2018-07-13T01:56:01.407Z,89.30
2018-07-13T01:58:29.745Z,89.40
2018-07-13T02:00:58.136Z,89.40
2018-07-13T02:03:26.501Z,89.40
2018-07-13T02:05:54.836Z,89.60
2018-07-13T02:08:23.240Z,89.80
2018-07-13T02:10:51.564Z,89.90
2018-07-13T02:13:19.897Z,90.00
2018-07-13T02:15:48.232Z,90.30
2018-07-13T02:18:16.575Z,90.50
2018-07-13T02:20:44.973Z,90.50
2018-07-13T02:23:13.322Z,90.60
2018-07-13T02:25:41.779Z,90.60
2018-07-13T02:28:10.157Z,90.70
2018-07-13T02:30:38.486Z,90.70
2018-07-13T02:33:06.854Z,90.70
2018-07-13T02:35:35.219Z,90.60
2018-07-13T02:38:03.723Z,90.50
2018-07-13T02:40:32.062Z,90.60
2018-07-13T02:43:00.428Z,90.70
2018-07-13T02:45:28.770Z,90.80
2018-07-13T02:47:57.129Z,91.30
2018-07-13T02:50:25.526Z,91.50
2018-07-13T02:52:53.857Z,91.90
2018-07-13T02:55:22.209Z,91.70
2018-07-13T02:57:50.586Z,92.00
2018-07-13T03:00:18.951Z,92.20
2018-07-13T03:02:47.341Z,92.10
2018-07-13T03:05:15.678Z,91.80
2018-07-13T03:07:44.044Z,91.90
2018-07-13T03:10:12.390Z,91.90
2018-07-13T03:12:40.768Z,91.80
2018-07-13T03:15:09.145Z,91.50
2018-07-13T03:17:37.555Z,91.80
2018-07-13T03:20:05.917Z,91.50
2018-07-13T03:22:34.293Z,91.70
2018-07-13T03:25:02.649Z,91.50
2018-07-13T03:27:31.029Z,91.50
2018-07-13T03:29:59.374Z,91.20
2018-07-13T03:32:27.709Z,91.50
2018-07-13T03:34:56.085Z,91.50
2018-07-13T03:37:24.497Z,91.70
2018-07-13T03:39:52.877Z,91.70
2018-07-13T03:42:21.225Z,91.20
2018-07-13T03:44:49.592Z,91.30
2018-07-13T03:49:46.039Z,93.00
2018-07-13T03:52:14.379Z,93.50
2018-07-13T03:54:42.752Z,93.50
2018-07-13T03:57:11.085Z,94.10
2018-07-13T03:59:39.445Z,93.50
2018-07-13T04:02:07.846Z,92.90
2018-07-13T04:04:36.216Z,93.70
2018-07-13T04:07:04.619Z,93.90
2018-07-13T04:09:32.977Z,94.30
2018-07-13T04:12:01.340Z,95.00
2018-07-13T04:14:29.768Z,94.10
2018-07-13T04:16:58.134Z,93.40
2018-07-13T04:19:26.525Z,93.50
2018-07-13T04:21:54.923Z,93.40
2018-07-13T04:24:23.340Z,93.60
2018-07-13T04:26:51.885Z,93.80
2018-07-13T04:29:20.501Z,93.70
2018-07-13T04:31:48.861Z,93.70
2018-07-13T04:34:17.325Z,93.50
2018-07-13T04:36:45.673Z,93.30
2018-07-13T04:39:14.108Z,92.90
2018-07-13T04:41:42.609Z,92.80
2018-07-13T04:44:11.018Z,92.90
2018-07-13T04:46:39.462Z,92.50
2018-07-13T04:49:07.877Z,92.80
2018-07-13T04:51:36.300Z,93.00
2018-07-13T04:54:04.749Z,93.30
2018-07-13T04:56:33.541Z,93.60
2018-07-13T04:59:01.983Z,93.90
2018-07-13T05:01:30.416Z,93.60
2018-07-13T05:03:58.872Z,93.40
2018-07-13T05:06:27.305Z,93.60
2018-07-13T05:08:56.201Z,93.40
2018-07-13T05:11:24.597Z,93.40
2018-07-13T05:13:52.974Z,93.60
2018-07-13T05:16:21.477Z,93.70
2018-07-13T05:18:49.821Z,94.00
2018-07-13T05:21:18.282Z,94.10
2018-07-13T05:23:46.997Z,94.00
2018-07-13T05:26:15.427Z,93.60
2018-07-13T05:28:43.853Z,93.10
2018-07-13T05:31:12.433Z,92.20
2018-07-13T05:33:41.017Z,91.60
2018-07-13T05:36:09.465Z,91.20
2018-07-13T05:38:37.880Z,90.30
2018-07-13T05:41:06.320Z,89.60
2018-07-13T05:43:34.736Z,88.70
2018-07-13T05:46:03.188Z,87.60
2018-07-13T05:48:32.510Z,86.90
2018-07-13T05:51:00.937Z,86.20
2018-07-13T05:53:29.358Z,85.60
2018-07-13T05:55:57.781Z,84.60
2018-07-13T05:58:26.170Z,83.70
2018-07-13T06:00:54.621Z,83.10
2018-07-13T06:03:23.009Z,82.60
2018-07-13T06:05:51.468Z,81.90
2018-07-13T06:08:19.857Z,81.20
2018-07-13T06:10:48.265Z,81.10
2018-07-13T06:13:16.676Z,80.40
2018-07-13T06:15:45.205Z,79.90
2018-07-13T06:18:13.557Z,79.00
2018-07-13T06:20:41.933Z,80.00
2018-07-13T06:23:10.277Z,79.90
2018-07-13T06:25:38.633Z,78.60
2018-07-13T06:28:06.993Z,77.70
2018-07-13T06:30:35.451Z,77.30
2018-07-13T06:33:03.817Z,77.50
2018-07-13T06:35:32.165Z,76.40
2018-07-13T06:38:00.534Z,76.10
2018-07-13T06:40:29.104Z,77.20
2018-07-13T06:42:57.452Z,75.70
2018-07-13T06:45:25.846Z,75.10
2018-07-13T06:47:54.242Z,75.00
2018-07-13T06:50:22.627Z,74.20
2018-07-13T06:52:51.238Z,73.30
2018-07-13T06:55:19.665Z,72.80
2018-07-13T06:57:59.412Z,72.40
2018-07-13T07:01:07.325Z,72.10
2018-07-13T07:03:43.046Z,71.10
2018-07-13T07:06:13.890Z,71.60
2018-07-13T07:08:47.209Z,71.10
2018-07-13T07:11:16.043Z,71.30
2018-07-13T07:13:44.958Z,70.40
2018-07-13T07:16:13.423Z,70.50
2018-07-13T07:18:41.950Z,70.80
2018-07-13T07:21:10.477Z,70.10
2018-07-13T07:23:39.085Z,70.80
2018-07-13T07:26:07.540Z,71.00
2018-07-13T07:28:35.965Z,69.80
2018-07-13T07:31:04.365Z,70.30
2018-07-13T07:33:32.733Z,68.60
2018-07-13T07:36:01.053Z,67.70
2018-07-13T07:38:29.555Z,67.40
2018-07-13T07:40:57.909Z,66.40
2018-07-13T07:43:26.324Z,66.90
2018-07-13T07:45:54.681Z,66.20
2018-07-13T07:48:23.054Z,68.20
2018-07-13T07:50:51.466Z,68.00
2018-07-13T07:53:19.876Z,68.30
2018-07-13T07:55:48.272Z,67.80
2018-07-13T07:58:16.677Z,66.60
2018-07-13T08:00:45.048Z,66.10
2018-07-13T08:03:13.411Z,66.20
2018-07-13T08:05:41.784Z,67.50
2018-07-13T08:08:10.185Z,67.50
2018-07-13T08:10:38.560Z,67.50
2018-07-13T08:13:06.973Z,67.50
2018-07-13T08:15:35.417Z,67.30
2018-07-13T08:18:03.862Z,67.60
2018-07-13T08:20:33.841Z,68.00
2018-07-13T08:23:06.845Z,67.30
2018-07-13T08:25:35.600Z,67.90
2018-07-13T08:28:04.699Z,67.10
2018-07-13T08:30:35.828Z,67.30
2018-07-13T08:33:04.190Z,67.30
2018-07-13T08:35:32.769Z,65.70
2018-07-13T08:38:01.149Z,66.00
2018-07-13T08:40:29.634Z,64.80
2018-07-13T08:42:58.062Z,65.30
2018-07-13T08:45:26.429Z,65.30
2018-07-13T08:47:54.908Z,65.40
2018-07-13T08:50:23.423Z,64.70
2018-07-13T08:52:52.508Z,65.30
2018-07-13T08:55:20.929Z,64.70
2018-07-13T08:57:49.988Z,65.10
2018-07-13T09:00:18.385Z,65.60
2018-07-13T09:02:46.753Z,65.50
2018-07-13T09:05:15.129Z,65.10
2018-07-13T09:07:43.497Z,65.20
2018-07-13T09:10:12.980Z,64.70
2018-07-13T09:12:41.828Z,64.20
2018-07-13T09:15:11.805Z,64.30
2018-07-13T09:17:40.188Z,63.30
2018-07-13T09:20:10.285Z,64.30
2018-07-13T09:22:38.664Z,63.90
2018-07-13T09:25:07.830Z,64.10
2018-07-13T09:27:36.157Z,64.40
2018-07-13T09:30:04.811Z,65.00
2018-07-13T09:32:33.221Z,64.50
2018-07-13T09:35:01.598Z,64.20
2018-07-13T09:37:29.982Z,64.30
2018-07-13T09:39:58.373Z,62.80
2018-07-13T09:42:26.792Z,63.50
2018-07-13T09:44:55.167Z,60.80
2018-07-13T09:47:23.544Z,61.60
2018-07-13T09:49:51.912Z,61.90
2018-07-13T09:52:20.273Z,62.90
2018-07-13T09:54:48.738Z,62.20
2018-07-13T09:57:17.130Z,62.30
2018-07-13T10:02:13.716Z,61.20
2018-07-13T10:04:42.133Z,61.60
2018-07-13T10:07:10.673Z,61.80
2018-07-13T10:09:39.070Z,61.50
2018-07-13T10:12:07.568Z,59.60
2018-07-13T10:14:35.949Z,60.10
2018-07-13T10:17:04.397Z,58.60
2018-07-13T10:19:32.813Z,58.80
2018-07-13T10:22:01.273Z,58.30
2018-07-13T10:24:30.797Z,56.70
2018-07-13T10:26:59.457Z,56.40
2018-07-13T10:29:30.820Z,57.30
2018-07-13T10:32:00.046Z,57.00
2018-07-13T10:34:28.445Z,57.50
2018-07-13T10:37:02.013Z,59.30
2018-07-13T10:39:30.601Z,58.40
2018-07-13T10:41:58.960Z,58.20
2018-07-13T10:44:27.284Z,57.80
2018-07-13T10:46:55.704Z,56.90
2018-07-13T10:49:24.027Z,57.10
2018-07-13T10:51:52.729Z,56.40
2018-07-13T10:54:21.537Z,57.00
2018-07-13T10:56:49.886Z,55.30
2018-07-13T10:59:18.326Z,53.90
2018-07-13T11:01:46.823Z,54.00
2018-07-13T11:04:15.156Z,53.20
2018-07-13T11:06:44.386Z,56.10
2018-07-13T11:09:12.749Z,54.00
2018-07-13T11:11:41.089Z,54.20
2018-07-13T11:14:09.929Z,54.40
2018-07-13T11:16:38.629Z,54.00
2018-07-13T11:19:06.993Z,53.10
2018-07-13T11:21:35.429Z,54.40
2018-07-13T11:24:03.798Z,54.10
2018-07-13T11:26:32.150Z,53.90
2018-07-13T11:29:00.726Z,52.80
2018-07-13T11:31:29.200Z,52.90
2018-07-13T11:33:57.534Z,53.10
2018-07-13T11:36:25.869Z,52.70
2018-07-13T11:38:54.245Z,52.70
2018-07-13T11:41:22.580Z,52.40
2018-07-13T11:43:51.012Z,52.90
2018-07-13T11:46:19.477Z,52.90
2018-07-13T11:48:47.781Z,53.70
2018-07-13T11:51:16.147Z,52.60
2018-07-13T11:53:44.469Z,51.50
2018-07-13T11:56:13.014Z,52.70
2018-07-13T11:58:41.381Z,53.00
2018-07-13T12:01:09.785Z,53.30
2018-07-13T12:03:38.137Z,52.50
2018-07-13T12:06:06.493Z,53.00
2018-07-13T12:08:34.921Z,53.00
2018-07-13T12:11:03.242Z,52.20
2018-07-13T12:13:31.689Z,51.10
2018-07-13T12:16:00.168Z,51.00
2018-07-13T12:18:28.513Z,51.80
2018-07-13T12:20:56.829Z,52.30
2018-07-13T12:23:25.216Z,53.50
2018-07-13T12:25:53.532Z,52.70
2018-07-13T12:28:22.352Z,53.00
2018-07-13T12:30:50.687Z,53.70
2018-07-13T12:33:19.061Z,52.90
2018-07-13T12:35:47.530Z,53.10
2018-07-13T12:38:15.894Z,53.50
2018-07-13T12:40:44.234Z,54.00
2018-07-13T12:43:12.605Z,52.20
2018-07-13T12:45:40.923Z,53.20
2018-07-13T12:48:09.254Z,52.60
2018-07-13T12:50:37.625Z,52.90
2018-07-13T12:56:09.098Z,52.40
2018-07-13T12:58:37.481Z,52.20
2018-07-13T13:01:05.903Z,51.60
2018-07-13T13:03:34.303Z,51.00
2018-07-13T13:06:02.860Z,51.40
2018-07-13T13:08:32.326Z,51.80
2018-07-13T13:11:01.075Z,51.80
2018-07-13T13:13:29.933Z,51.70
2018-07-13T13:15:58.430Z,52.90
2018-07-13T13:18:26.789Z,52.30
2018-07-13T13:20:55.186Z,50.90
2018-07-13T13:23:23.982Z,50.60
2018-07-13T13:25:53.336Z,51.70
2018-07-13T13:28:22.038Z,50.70
2018-07-13T13:30:50.725Z,51.00
2018-07-13T13:33:19.150Z,50.90
2018-07-13T13:35:47.530Z,51.20
2018-07-13T13:38:15.918Z,52.70
2018-07-13T13:40:44.606Z,52.70
2018-07-13T13:43:13.985Z,52.80
2018-07-13T13:45:43.231Z,52.20
2018-07-13T13:48:12.474Z,52.00
2018-07-13T13:50:41.018Z,51.70
2018-07-13T13:53:09.430Z,50.70
2018-07-13T13:55:37.847Z,50.30
2018-07-13T13:58:06.254Z,51.10
2018-07-13T14:00:34.745Z,51.50
2018-07-13T14:03:03.682Z,52.30
2018-07-13T14:05:32.218Z,50.60
2018-07-13T14:08:01.178Z,51.70
2018-07-13T14:10:30.089Z,52.40
2018-07-13T14:12:58.641Z,52.90
2018-07-13T14:15:27.034Z,53.00
2018-07-13T14:17:55.451Z,53.40
2018-07-13T14:20:24.419Z,53.10
2018-07-13T14:22:53.653Z,53.20
2018-07-13T14:25:23.251Z,52.60
2018-07-13T14:27:52.303Z,52.60
2018-07-13T14:30:21.165Z,52.70
2018-07-13T14:32:49.527Z,52.10
2018-07-13T14:35:17.908Z,52.50
2018-07-13T14:37:46.486Z,52.80
2018-07-13T14:40:15.062Z,53.10
2018-07-13T14:42:43.785Z,53.20
2018-07-13T14:45:13.331Z,53.70
2018-07-13T14:47:42.440Z,53.80
2018-07-13T14:50:10.827Z,53.70
2018-07-13T14:52:39.201Z,53.00
2018-07-13T14:55:07.642Z,53.20
2018-07-13T14:57:36.142Z,53.20
2018-07-13T15:00:04.871Z,53.00
2018-07-13T15:02:33.246Z,52.90
2018-07-13T15:05:01.681Z,52.50
2018-07-13T15:07:30.018Z,53.50
2018-07-13T15:09:58.409Z,52.90
2018-07-13T15:12:26.813Z,52.70
2018-07-13T15:14:55.206Z,51.90
2018-07-13T15:17:23.644Z,53.30
2018-07-13T15:19:51.974Z,53.00
2018-07-13T15:22:20.333Z,52.90
2018-07-13T15:24:48.710Z,52.00
2018-07-13T15:27:17.157Z,52.70
2018-07-13T15:29:45.518Z,53.40
2018-07-13T15:32:13.937Z,52.70
2018-07-13T15:34:42.250Z,52.90
2018-07-13T15:37:10.627Z,53.70
2018-07-13T15:39:38.982Z,54.20
2018-07-13T15:42:07.341Z,53.50
2018-07-13T15:44:36.022Z,52.90
2018-07-13T15:47:04.491Z,53.40
2018-07-13T15:49:32.841Z,54.10
2018-07-13T15:52:01.246Z,54.10
2018-07-13T15:54:29.721Z,54.70
2018-07-13T15:56:58.338Z,54.40
2018-07-13T15:59:26.696Z,54.10
2018-07-13T16:01:55.070Z,53.90
2018-07-13T16:04:23.413Z,53.50
2018-07-13T16:06:51.782Z,53.20
2018-07-13T16:09:20.124Z,52.40
2018-07-13T16:11:48.518Z,52.60
2018-07-13T16:14:16.865Z,52.70
2018-07-13T16:16:45.233Z,52.40
2018-07-13T16:19:13.677Z,52.00
2018-07-13T16:21:42.051Z,52.00
2018-07-13T16:24:10.433Z,51.40
2018-07-13T16:26:38.942Z,52.20
2018-07-13T16:29:07.402Z,52.40
2018-07-13T16:31:35.779Z,52.60
2018-07-13T16:34:04.185Z,52.70
2018-07-13T16:36:32.546Z,52.60
2018-07-13T16:39:00.886Z,52.50
2018-07-13T16:41:29.245Z,53.10
2018-07-13T16:43:57.585Z,54.10
2018-07-13T16:46:25.954Z,54.50
2018-07-13T16:48:54.301Z,53.70
2018-07-13T16:51:22.730Z,53.60
2018-07-13T16:53:51.134Z,53.70
2018-07-13T16:56:19.705Z,54.20
2018-07-13T16:58:48.031Z,53.60
2018-07-13T17:01:16.385Z,53.30
2018-07-13T17:03:44.765Z,54.30
2018-07-13T17:06:13.267Z,53.30
2018-07-13T17:08:42.093Z,54.00
2018-07-13T17:11:10.434Z,53.50
2018-07-13T17:13:38.812Z,53.70
2018-07-13T17:16:07.153Z,53.40
2018-07-13T17:18:35.528Z,53.20
2018-07-13T17:21:04.054Z,54.30
2018-07-13T17:23:32.414Z,54.50
2018-07-13T17:26:01.222Z,53.60
2018-07-13T17:28:29.606Z,54.40
2018-07-13T17:30:57.953Z,53.60
2018-07-13T17:33:26.397Z,53.80
2018-07-13T17:35:54.779Z,54.10
2018-07-13T17:38:23.150Z,53.80
2018-07-13T17:40:52.365Z,54.50
2018-07-13T17:43:20.733Z,55.40
2018-07-13T17:45:49.118Z,53.80
2018-07-13T17:48:17.494Z,53.90
2018-07-13T17:50:45.845Z,53.90
2018-07-13T17:53:14.209Z,54.10
2018-07-13T17:55:42.633Z,54.10
2018-07-13T17:58:11.109Z,54.60
2018-07-13T18:00:39.512Z,54.60
2018-07-13T18:03:07.833Z,55.40
2018-07-13T18:05:36.411Z,55.60
2018-07-13T18:08:04.774Z,55.90
2018-07-13T18:10:33.123Z,56.30
2018-07-13T18:13:01.823Z,56.60
2018-07-13T18:15:29.870Z,55.50
2018-07-13T18:17:58.257Z,56.60
2018-07-13T18:20:26.635Z,57.40
2018-07-13T18:22:55.028Z,56.50
2018-07-13T18:25:23.430Z,57.10
2018-07-13T18:27:52.169Z,57.40
2018-07-13T18:30:20.603Z,58.00
2018-07-13T18:32:48.945Z,57.70
2018-07-13T18:35:17.366Z,58.10
2018-07-13T18:37:45.994Z,57.50
2018-07-13T18:40:14.538Z,57.80
2018-07-13T18:42:42.882Z,58.10
2018-07-13T18:45:11.384Z,58.50
2018-07-13T18:47:39.797Z,58.80
2018-07-13T18:50:08.197Z,58.80
2018-07-13T18:52:36.601Z,59.10
2018-07-13T18:55:05.157Z,59.20
2018-07-13T18:57:33.769Z,59.20
2018-07-13T19:00:02.177Z,59.70
2018-07-13T19:02:30.642Z,59.20
2018-07-13T19:04:59.018Z,60.00
2018-07-13T19:07:27.452Z,60.30
2018-07-13T19:09:58.962Z,60.90
2018-07-13T19:12:27.317Z,61.50
2018-07-13T19:14:55.833Z,61.80
2018-07-13T19:17:24.505Z,62.20
2018-07-13T19:19:53.114Z,62.50
2018-07-13T19:22:21.487Z,62.60
2018-07-13T19:24:49.870Z,63.40
2018-07-13T19:27:18.221Z,64.10
2018-07-13T19:29:46.646Z,64.50
2018-07-13T19:34:43.605Z,65.40
2018-07-13T19:37:12.245Z,65.80
2018-07-13T19:39:40.650Z,66.20
2018-07-13T19:42:09.017Z,66.20
2018-07-13T19:44:37.465Z,66.50
2018-07-13T19:47:06.614Z,66.50
2018-07-13T19:49:35.353Z,67.20
2018-07-13T19:52:04.338Z,67.30
2018-07-13T19:54:33.031Z,67.20
2018-07-13T19:57:01.562Z,67.20
2018-07-13T19:59:29.874Z,66.90
2018-07-13T20:01:58.473Z,67.00
2018-07-13T20:04:26.971Z,67.50
2018-07-13T20:06:55.611Z,67.30
2018-07-13T20:09:24.997Z,67.20
2018-07-13T20:14:22.646Z,68.00
2018-07-13T20:16:51.053Z,68.30
2018-07-13T20:19:19.531Z,69.20
2018-07-13T20:21:47.910Z,68.60
2018-07-13T20:24:16.502Z,69.10
2018-07-13T20:26:45.737Z,69.20
2018-07-13T20:29:14.834Z,69.10
2018-07-13T20:31:43.817Z,68.60
2018-07-13T20:34:12.220Z,69.10
2018-07-13T20:36:40.614Z,70.20
2018-07-13T20:39:09.077Z,70.60
2018-07-13T20:41:37.633Z,71.20
2018-07-13T20:44:06.509Z,71.80
2018-07-13T20:46:35.369Z,71.40
2018-07-13T20:49:04.217Z,71.30
2018-07-13T20:51:33.297Z,71.60
2018-07-13T20:54:02.469Z,71.70
2018-07-13T20:56:31.312Z,71.50
2018-07-13T20:58:59.723Z,71.50
2018-07-13T21:01:28.110Z,71.30
2018-07-13T21:03:56.774Z,72.10
2018-07-13T21:06:25.901Z,72.20
2018-07-13T21:08:54.872Z,71.90
2018-07-13T21:11:24.657Z,71.50
2018-07-13T21:13:54.545Z,72.90
2018-07-13T21:16:24.431Z,73.30
2018-07-13T21:18:53.476Z,73.60
2018-07-13T21:21:23.068Z,73.50
2018-07-13T21:23:52.808Z,73.80
2018-07-13T21:26:21.357Z,73.80
2018-07-13T21:28:50.114Z,74.10
2018-07-13T21:31:18.533Z,74.20
2018-07-13T21:33:46.905Z,74.30
2018-07-13T21:36:15.313Z,74.70
2018-07-13T21:38:43.727Z,74.10
2018-07-13T21:41:12.121Z,73.60
2018-07-13T21:43:40.493Z,73.50
2018-07-13T21:46:08.888Z,73.70
2018-07-13T21:48:37.257Z,73.90
2018-07-13T21:51:05.765Z,74.40
2018-07-13T21:53:34.157Z,73.80
2018-07-13T21:56:02.566Z,73.60
2018-07-13T21:58:30.978Z,73.20
2018-07-13T22:00:59.365Z,73.40
2018-07-13T22:03:27.770Z,73.50
2018-07-13T22:05:56.133Z,73.80
2018-07-13T22:08:24.499Z,73.40
2018-07-13T22:10:52.854Z,74.00
2018-07-13T22:13:21.442Z,73.20
2018-07-13T22:15:49.717Z,74.60
2018-07-13T22:18:18.091Z,74.70
2018-07-13T22:20:46.481Z,75.40
2018-07-13T22:23:15.150Z,74.50
2018-07-13T22:25:43.465Z,74.50
2018-07-13T22:28:11.918Z,75.00
2018-07-13T22:30:40.306Z,74.00
2018-07-13T22:33:08.665Z,74.20
2018-07-13T22:35:37.018Z,74.10
2018-07-13T22:38:05.422Z,74.60
2018-07-13T22:40:33.776Z,74.60
2018-07-13T22:43:02.161Z,75.30
2018-07-13T22:45:30.525Z,76.00
2018-07-13T22:47:58.925Z,76.10
2018-07-13T22:50:27.371Z,76.40
2018-07-13T22:52:55.738Z,76.70
2018-07-13T22:55:24.125Z,76.80
2018-07-13T22:57:52.545Z,76.40
2018-07-13T23:00:20.933Z,76.30
2018-07-13T23:02:49.330Z,76.60
2018-07-13T23:05:17.760Z,77.20
2018-07-13T23:07:46.203Z,77.40
2018-07-13T23:12:42.684Z,77.30
2018-07-13T23:15:11.082Z,77.30
2018-07-13T23:17:39.562Z,77.50
2018-07-13T23:20:07.942Z,77.20
2018-07-13T23:22:36.474Z,77.20
2018-07-13T23:25:04.995Z,77.00
2018-07-13T23:27:33.426Z,77.20
2018-07-13T23:30:01.821Z,77.50
2018-07-13T23:32:30.198Z,77.70
2018-07-13T23:34:58.595Z,77.60
2018-07-13T23:37:27.002Z,77.40
2018-07-13T23:39:55.366Z,77.80
2018-07-13T23:42:23.787Z,77.70
2018-07-13T23:44:52.173Z,78.00
2018-07-13T23:47:20.577Z,78.40
2018-07-13T23:49:48.951Z,78.40
2018-07-13T23:52:17.377Z,78.70
2018-07-13T23:54:45.792Z,78.70
2018-07-13T23:57:14.161Z,78.20
2018-07-13T23:59:42.501Z,78.60
